Time;durP1;ratioP1;P1;durP2;ratioP2;P2;SDS_P1;SDS_P2;PMS_P1;PMS_P2;Temp;Humidity;BMP_temperature;BMP_pressure;BME280_temperature;BME280_humidity;BME280_pressure;Samples;Min_cycle;Max_cycle;Signal;HPM_P1;HPM_P2
2022/01/31 00:03:07;;;;;;;10.47;1.77;;;4.20;73.40;;;2.25;56.30;99959.16;10458416;27;96408;-78
2022/01/31 00:08:10;;;;;;;4.67;1.13;;;4.10;73.40;;;2.21;56.74;99957.72;10423884;27;96522;-77
2022/01/31 00:13:19;;;;;;;8.60;1.63;;;4.10;73.20;;;2.31;55.74;99911.50;10421630;27;96583;-77
2022/01/31 00:18:21;;;;;;;6.10;2.00;;;4.10;72.90;;;2.37;54.93;99918.88;10442889;27;96491;-78
2022/01/31 00:23:25;;;;;;;7.13;2.07;;;4.10;72.00;;;2.48;54.66;99889.16;10418520;27;96420;-77
2022/01/31 00:28:28;;;;;;;14.47;1.87;;;4.20;72.00;;;2.54;54.77;99908.81;10431505;27;96604;-77
2022/01/31 00:33:31;;;;;;;8.57;1.63;;;4.30;71.90;;;2.45;54.68;99930.53;10427552;27;96526;-77
2022/01/31 00:38:34;;;;;;;7.63;1.47;;;4.30;71.80;;;2.32;55.30;99960.34;10370321;27;96410;-76
2022/01/31 00:43:38;;;;;;;14.47;2.50;;;4.20;72.10;;;2.27;55.67;99961.66;10453957;27;96534;-76
2022/01/31 00:48:44;;;;;;;9.47;1.80;;;4.10;72.30;;;2.27;55.71;99974.78;10423597;27;98135;-76
2022/01/31 00:53:47;;;;;;;10.33;2.00;;;4.10;72.60;;;2.32;55.55;99962.16;10398921;27;96554;-76
2022/01/31 00:58:50;;;;;;;7.70;2.03;;;4.10;72.50;;;2.29;55.26;99970.25;10413034;27;96592;-76
2022/01/31 01:03:53;;;;;;;15.60;2.40;;;4.10;72.60;;;2.27;55.84;99969.53;10457856;27;96538;-76
2022/01/31 01:08:56;;;;;;;13.27;1.70;;;4.10;72.80;;;2.24;56.13;99965.38;10400070;27;96828;-76
2022/01/31 01:13:59;;;;;;;11.70;2.53;;;4.00;73.10;;;2.23;56.12;99973.38;10423095;27;96565;-78
2022/01/31 01:19:03;;;;;;;10.63;2.10;;;4.00;73.20;;;2.21;56.01;99972.63;10394651;27;96569;-76
2022/01/31 01:24:07;;;;;;;12.10;1.80;;;4.00;73.40;;;2.20;56.43;99968.34;10394558;27;98624;-78
2022/01/31 01:29:10;;;;;;;6.77;1.77;;;4.00;73.60;;;2.15;56.75;99963.47;10427828;27;96805;-77
2022/01/31 01:34:13;;;;;;;12.63;2.20;;;3.90;73.80;;;2.12;56.53;99971.56;10419181;27;97345;-77
2022/01/31 01:39:16;;;;;;;10.13;1.93;;;3.90;73.90;;;2.10;56.70;99955.16;10403288;27;98010;-77
2022/01/31 01:44:40;;;;;;;9.70;2.03;;;3.90;74.00;;;2.05;56.68;99941.56;10398357;27;97009;-77
2022/01/31 01:49:46;;;;;;;11.20;2.27;;;3.90;74.10;;;2.01;56.71;99929.63;10414948;27;96527;-78
2022/01/31 01:54:49;;;;;;;9.07;2.00;;;3.80;73.80;;;1.97;56.32;99912.47;10408736;27;98137;-77
2022/01/31 01:59:55;;;;;;;12.90;2.43;;;3.70;73.60;;;1.95;55.79;99912.59;10394140;27;96652;-77
2022/01/31 02:04:58;;;;;;;7.10;2.03;;;3.70;73.30;;;1.96;56.07;99910.81;10397725;27;96510;-77
2022/01/31 02:10:06;;;;;;;12.47;2.03;;;3.70;73.00;;;1.96;55.23;99903.78;10423241;27;97024;-78
2022/01/31 02:15:10;;;;;;;6.53;2.03;;;3.70;72.70;;;1.97;55.79;99912.47;10418472;27;96572;-79
2022/01/31 02:20:13;;;;;;;12.30;1.70;;;3.70;72.70;;;1.90;55.64;99914.75;10427432;27;96959;-77
2022/01/31 02:25:16;;;;;;;13.17;1.70;;;3.70;72.80;;;1.75;56.46;99902.84;10408453;27;97339;-77
2022/01/31 02:30:19;;;;;;;12.93;2.23;;;3.60;73.20;;;1.69;56.66;99882.38;10428413;27;96426;-78
2022/01/31 02:35:21;;;;;;;9.63;1.77;;;3.50;73.40;;;1.65;57.22;99892.25;10421851;27;97059;-78
2022/01/31 02:40:24;;;;;;;13.67;2.10;;;3.50;74.00;;;1.54;57.35;99879.13;10403284;27;96501;-78
2022/01/31 02:45:27;;;;;;;10.77;2.07;;;3.40;74.30;;;1.49;57.25;99870.78;10418813;27;96519;-78
2022/01/31 02:50:31;;;;;;;16.13;3.37;;;3.30;74.50;;;1.42;57.56;99865.19;10417322;27;96463;-78
2022/01/31 02:55:33;;;;;;;13.17;2.00;;;3.30;74.60;;;1.40;57.77;99869.72;10445097;27;96567;-78
2022/01/31 03:00:38;;;;;;;7.23;1.57;;;3.20;74.70;;;1.38;57.49;99847.22;10429289;27;96551;-78
2022/01/31 03:05:41;;;;;;;8.90;2.07;;;3.20;74.90;;;1.36;58.03;99841.28;10412505;27;96858;-78
2022/01/31 03:10:44;;;;;;;13.20;1.53;;;3.20;74.90;;;1.35;57.46;99848.28;10413938;27;96543;-78
2022/01/31 03:15:49;;;;;;;9.10;1.93;;;3.20;74.90;;;1.32;57.62;99852.00;10437842;27;97066;-78
2022/01/31 03:20:52;;;;;;;9.93;1.57;;;3.20;75.10;;;1.31;57.80;99844.22;10436013;27;96980;-78
2022/01/31 03:25:55;;;;;;;10.27;1.67;;;3.10;74.80;;;1.30;57.85;99843.41;10402144;27;96516;-78
2022/01/31 03:30:58;;;;;;;9.70;2.43;;;3.20;75.00;;;1.32;57.64;99844.13;10440607;27;96447;-77
2022/01/31 03:36:01;;;;;;;14.60;2.27;;;3.20;75.10;;;1.36;57.44;99844.72;10402734;28;96477;-78
2022/01/31 03:41:03;;;;;;;12.23;2.90;;;3.20;75.20;;;1.37;57.92;99837.69;10435277;27;96509;-78
2022/01/31 03:46:07;;;;;;;13.87;2.47;;;3.20;75.00;;;1.36;57.65;99834.25;10438949;27;96580;-78
2022/01/31 03:51:10;;;;;;;13.20;2.53;;;3.20;74.90;;;1.48;56.95;99854.25;10442551;27;96550;-78
2022/01/31 03:56:13;;;;;;;10.53;2.30;;;3.20;74.70;;;1.56;57.29;99840.56;10419412;28;96370;-78
2022/01/31 04:01:15;;;;;;;14.03;2.53;;;3.30;74.70;;;1.68;56.73;99831.78;10438766;27;96710;-77
2022/01/31 04:06:19;;;;;;;8.50;1.63;;;3.40;74.60;;;1.84;55.77;99810.41;10401231;28;96493;-78
2022/01/31 04:11:21;;;;;;;12.53;1.73;;;3.60;73.80;;;1.99;55.02;99803.97;10397330;27;96565;-78
2022/01/31 04:16:24;;;;;;;12.30;2.53;;;3.70;73.00;;;2.05;54.76;99802.66;10402369;27;96536;-78
2022/01/31 04:21:27;;;;;;;10.03;2.00;;;3.80;72.50;;;2.14;54.87;99791.41;10450683;27;96370;-77
2022/01/31 04:26:34;;;;;;;6.83;1.60;;;3.90;72.60;;;2.18;54.34;99792.00;10454290;27;98674;-78
2022/01/31 04:31:44;;;;;;;15.87;2.27;;;3.90;71.70;;;2.27;53.30;99784.22;10434307;27;96826;-78
2022/01/31 04:36:47;;;;;;;14.53;2.03;;;3.90;71.60;;;2.37;52.04;99776.44;10404790;28;96536;-77
2022/01/31 04:41:51;;;;;;;12.20;1.93;;;4.00;69.80;;;2.44;51.56;99764.47;10398962;27;96684;-78
2022/01/31 04:46:54;;;;;;;11.97;2.37;;;4.10;68.50;;;2.49;51.61;99769.34;10416555;27;98535;-78
2022/01/31 04:51:57;;;;;;;15.00;2.63;;;4.20;68.80;;;2.52;51.39;99772.56;10400976;28;97066;-78
2022/01/31 04:57:00;;;;;;;11.97;2.40;;;4.20;68.40;;;2.51;51.22;99759.56;10416675;27;96489;-77
2022/01/31 05:02:04;;;;;;;11.30;2.13;;;4.20;68.00;;;2.48;50.95;99736.22;10419261;27;98080;-78
2022/01/31 05:07:07;;;;;;;9.13;2.33;;;4.20;67.40;;;2.43;51.42;99747.09;10427541;27;96560;-78
2022/01/31 05:12:10;;;;;;;10.63;2.43;;;4.20;67.80;;;2.45;50.70;99753.03;10400919;27;96520;-77
2022/01/31 05:17:13;;;;;;;15.80;2.57;;;4.20;66.20;;;2.46;51.05;99775.69;10406112;27;98322;-78
2022/01/31 05:22:16;;;;;;;11.93;2.30;;;4.20;67.00;;;2.47;50.50;99758.16;10375140;28;97060;-77
2022/01/31 05:27:19;;;;;;;8.57;1.93;;;4.20;66.70;;;2.53;49.82;99737.50;10398246;27;96528;-77
2022/01/31 05:32:22;;;;;;;11.67;1.80;;;4.20;65.50;;;2.54;49.48;99691.13;10436874;27;96564;-78
2022/01/31 05:37:25;;;;;;;10.30;3.03;;;4.30;65.30;;;2.50;49.74;99694.94;10409792;27;96856;-77
2022/01/31 05:42:28;;;;;;;8.50;1.70;;;4.20;65.60;;;2.45;50.33;99686.63;10428365;27;96871;-77
2022/01/31 05:47:31;;;;;;;14.90;4.03;;;4.20;66.00;;;2.36;50.96;99696.94;10398926;27;96831;-77
2022/01/31 05:52:34;;;;;;;10.23;1.90;;;4.10;66.50;;;2.32;50.86;99707.81;10401116;27;96672;-78
2022/01/31 05:57:37;;;;;;;16.73;2.57;;;4.10;66.70;;;2.23;52.01;99698.09;10411284;27;96638;-77
2022/01/31 06:02:40;;;;;;;10.80;2.40;;;4.00;67.50;;;2.12;52.58;99686.69;10402815;27;96480;-77
2022/01/31 06:07:44;;;;;;;9.93;2.00;;;3.90;68.00;;;2.03;53.09;99684.81;10383097;28;96765;-77
2022/01/31 06:12:47;;;;;;;14.33;2.67;;;3.80;68.60;;;2.00;52.92;99695.56;10406582;27;96666;-77
2022/01/31 06:17:51;;;;;;;12.33;1.90;;;3.80;68.90;;;1.97;53.13;99700.22;10394121;27;98378;-76
2022/01/31 06:22:54;;;;;;;7.87;1.90;;;3.70;69.10;;;1.90;54.00;99712.97;10396834;27;96974;-76
2022/01/31 06:27:57;;;;;;;13.60;2.20;;;3.70;69.90;;;1.82;55.01;99711.00;10406784;27;96420;-77
2022/01/31 06:33:00;;;;;;;13.50;2.97;;;3.60;70.50;;;1.77;54.87;99697.44;10432632;27;96484;-76
2022/01/31 06:38:05;;;;;;;17.43;2.63;;;3.60;70.90;;;1.77;55.23;99686.94;10420172;27;96551;-76
2022/01/31 06:43:09;;;;;;;14.27;3.77;;;3.60;71.10;;;1.75;55.14;99691.50;10419782;27;96828;-75
2022/01/31 06:48:12;;;;;;;22.93;6.90;;;3.50;71.50;;;1.77;55.29;99696.59;10427132;27;96498;-76
2022/01/31 06:53:17;;;;;;;14.73;2.57;;;3.50;71.70;;;1.75;55.96;99673.16;10425065;27;98344;-76
2022/01/31 06:58:19;;;;;;;12.57;2.63;;;3.60;72.00;;;1.77;55.76;99660.75;10386912;27;97411;-75
2022/01/31 07:03:23;;;;;;;9.20;2.33;;;3.60;72.10;;;1.80;55.71;99660.53;10406166;27;96898;-76
2022/01/31 07:08:26;;;;;;;16.80;2.17;;;3.60;72.40;;;1.78;56.22;99674.69;10420638;28;96452;-76
2022/01/31 07:13:37;;;;;;;10.43;1.73;;;3.60;72.60;;;1.75;56.41;99673.16;10408038;27;96629;-76
2022/01/31 07:18:41;;;;;;;;;;;3.60;72.70;;;1.72;56.66;99660.28;10418457;27;96548;-76
2022/01/31 07:29:09;;;;;;;10.17;2.30;;;3.50;72.90;;;1.67;57.35;99636.25;10422026;27;98614;-76
2022/01/31 07:34:17;;;;;;;8.87;1.90;;;3.50;73.50;;;1.76;57.41;99624.22;10408241;27;96543;-76
2022/01/31 07:39:21;;;;;;;11.63;2.53;;;3.60;73.60;;;1.89;56.84;99627.47;10379290;27;96691;-77
2022/01/31 07:44:23;;;;;;;9.73;2.10;;;3.70;73.50;;;2.05;56.80;99614.78;10406313;27;98863;-76
2022/01/31 07:49:26;;;;;;;17.90;3.43;;;3.80;73.60;;;2.17;56.76;99620.78;10402770;28;96741;-78
2022/01/31 07:54:30;;;;;;;15.97;3.83;;;3.90;73.70;;;2.27;56.32;99621.66;10410795;27;96735;-76
2022/01/31 07:59:32;;;;;;;14.13;2.93;;;4.00;73.50;;;2.39;56.21;99601.44;10383966;27;96645;-76
2022/01/31 08:04:35;;;;;;;15.70;3.37;;;4.10;73.50;;;2.55;55.54;99585.25;10403525;27;98252;-76
2022/01/31 08:09:39;;;;;;;16.37;3.70;;;4.20;72.80;;;2.74;55.45;99579.22;10399861;27;98509;-76
2022/01/31 08:14:43;;;;;;;14.40;2.40;;;4.40;73.50;;;2.95;54.97;99570.31;10391695;27;96618;-76
2022/01/31 08:19:46;;;;;;;9.40;2.73;;;4.60;73.00;;;3.09;53.91;99560.41;10387348;27;98563;-77
2022/01/31 08:24:49;;;;;;;11.40;2.10;;;4.70;71.60;;;3.21;52.73;99570.63;10406211;27;96849;-76
2022/01/31 08:29:59;;;;;;;8.50;1.93;;;4.80;71.00;;;3.31;52.41;99573.28;10402900;27;96597;-76
2022/01/31 08:40:25;;;;;;;10.88;4.18;;;5.10;70.60;;;3.46;52.17;99564.03;10409250;27;96558;-76
2022/01/31 08:45:28;;;;;;;13.07;2.33;;;5.20;70.10;;;3.51;51.82;99554.91;10368486;28;96470;-76
2022/01/31 08:50:31;;;;;;;10.47;2.30;;;5.20;70.10;;;3.62;52.87;99544.25;10420916;27;97630;-76
2022/01/31 08:55:36;;;;;;;11.97;2.27;;;5.30;70.30;;;3.68;52.69;99541.06;10388993;27;96682;-77
2022/01/31 09:00:38;;;;;;;9.90;2.00;;;5.40;70.50;;;3.70;52.87;99526.81;10445349;27;96942;-78
2022/01/31 09:05:42;;;;;;;6.97;2.20;;;5.40;70.30;;;3.80;53.03;99534.69;10430265;27;96657;-77
2022/01/31 09:10:46;;;;;;;9.43;1.90;;;5.40;70.40;;;3.97;52.61;99530.53;10458443;27;96455;-77
2022/01/31 09:15:49;;;;;;;9.40;1.97;;;5.60;70.70;;;4.07;52.37;99527.84;10399668;27;96650;-78
2022/01/31 09:20:57;;;;;;;10.30;2.80;;;5.70;70.40;;;4.10;51.47;99528.41;10409093;27;97238;-78
2022/01/31 09:26:00;;;;;;;16.83;4.10;;;5.70;69.40;;;4.16;51.58;99530.47;10428945;27;96641;-78
2022/01/31 09:31:04;;;;;;;18.43;5.33;;;5.80;69.20;;;4.11;51.94;99506.41;10433440;27;96533;-78
2022/01/31 09:36:07;;;;;;;14.43;2.80;;;5.80;69.10;;;4.09;51.62;99495.19;10403077;27;98251;-77
2022/01/31 09:41:14;;;;;;;10.73;3.60;;;5.70;68.90;;;4.07;51.60;99493.66;10398722;28;96461;-77
2022/01/31 09:46:43;;;;;;;11.20;3.60;;;5.70;68.90;;;4.03;51.83;99478.19;10411637;27;96933;-77
2022/01/31 09:51:43;;;;;;;10.73;2.80;;;5.70;68.90;;;4.07;51.48;99462.94;10407776;27;97801;-77
2022/01/31 09:56:47;;;;;;;9.53;2.00;;;5.70;69.20;;;4.11;51.54;99439.84;10380657;27;96582;-77
2022/01/31 10:01:54;;;;;;;7.07;1.97;;;5.80;68.50;;;4.15;51.14;99439.41;10384089;27;98370;-77
2022/01/31 10:06:58;;;;;;;8.53;2.07;;;5.80;68.30;;;4.23;51.09;99433.41;10396136;27;96558;-77
2022/01/31 10:12:09;;;;;;;5.50;1.97;;;5.90;68.20;;;4.28;50.61;99428.53;10421749;27;98220;-76
2022/01/31 10:17:39;;;;;;;13.15;4.00;;;5.90;67.70;;;4.38;51.10;99418.81;10415552;27;96599;-76
2022/01/31 10:22:52;;;;;;;13.93;2.90;;;6.00;67.90;;;4.45;50.22;99404.09;10418597;27;97084;-76
2022/01/31 10:27:55;;;;;;;12.90;2.20;;;6.10;66.90;;;4.49;49.89;99389.63;10378762;27;96619;-77
2022/01/31 10:32:58;;;;;;;10.23;2.27;;;6.10;67.00;;;4.53;50.08;99377.84;10440200;27;96494;-77
2022/01/31 10:38:10;;;;;;;11.87;2.70;;;6.10;67.30;;;4.67;49.93;99368.59;10410193;28;96491;-77
2022/01/31 10:59:15;;;;;;;6.83;2.33;;;6.40;65.90;;;4.97;49.23;99320.00;10392977;28;98038;-77
2022/01/31 11:04:21;;;;;;;16.30;3.53;;;6.60;66.20;;;4.95;49.00;99313.25;10392159;27;96610;-77
2022/01/31 11:09:25;;;;;;;10.57;2.93;;;6.60;65.60;;;4.98;49.08;99284.81;10391769;28;96502;-76
2022/01/31 11:14:28;;;;;;;19.83;4.03;;;6.60;65.70;;;5.01;49.59;99284.47;10431822;27;97796;-77
2022/01/31 11:19:33;;;;;;;17.33;5.50;;;6.60;65.90;;;5.05;49.47;99264.78;10408294;27;98211;-75
2022/01/31 11:24:43;;;;;;;8.67;1.80;;;6.70;65.90;;;5.03;48.50;99239.56;10392523;27;97434;-78
2022/01/31 11:29:53;;;;;;;10.63;3.07;;;6.70;65.20;;;5.02;47.93;99238.72;10395685;27;98296;-77
2022/01/31 11:34:56;;;;;;;10.63;2.03;;;6.70;65.10;;;5.01;48.45;99234.44;10413438;27;97058;-77
2022/01/31 11:40:07;;;;;;;13.23;2.60;;;6.70;64.80;;;5.13;48.29;99221.03;10425270;27;96591;-77
2022/01/31 11:45:18;;;;;;;9.88;3.22;;;6.80;64.90;;;5.19;48.62;99209.84;10395613;27;96534;-77
2022/01/31 11:50:22;;;;;;;23.75;7.68;;;6.80;64.80;;;5.17;48.48;99198.66;10422577;27;98407;-77
2022/01/31 11:55:35;;;;;;;28.90;6.33;;;6.80;64.60;;;5.30;48.31;99177.97;10415632;27;96877;-76
2022/01/31 12:00:40;;;;;;;29.83;7.20;;;6.90;64.90;;;5.33;48.23;99161.84;10408093;27;96616;-75
2022/01/31 12:05:44;;;;;;;13.77;3.50;;;7.00;64.40;;;5.29;47.67;99192.13;10422301;27;97563;-75
2022/01/31 12:11:07;;;;;;;10.13;2.10;;;7.00;64.00;;;5.16;47.28;99189.94;10410426;27;96906;-75
2022/01/31 12:27:13;;;;;;;10.87;2.73;;;6.70;64.00;;;4.81;48.30;99175.13;10404246;27;96534;-77
2022/01/31 12:32:38;;;;;;;11.57;2.37;;;6.60;63.70;;;4.69;48.96;99164.03;10410204;27;97554;-77
2022/01/31 12:37:50;;;;;;;8.60;2.17;;;6.40;64.10;;;4.64;49.49;99165.47;10390734;27;97978;-77
2022/01/31 12:48:23;;;;;;;20.63;8.57;;;6.30;64.80;;;4.59;49.36;99133.53;10390298;27;97963;-77
2022/01/31 12:53:37;;;;;;;16.20;4.07;;;6.30;64.80;;;4.61;49.61;99121.84;10390928;27;98468;-76
2022/01/31 12:58:49;;;;;;;9.87;3.40;;;6.30;65.00;;;4.68;49.51;99127.31;10392115;27;97944;-77
2022/01/31 13:04:24;;;;;;;8.43;2.57;;;6.40;65.00;;;4.71;49.86;99117.31;10403384;27;97112;-76
2022/01/31 13:09:35;;;;;;;8.10;2.43;;;6.40;65.20;;;4.76;49.65;99109.78;10379546;27;98313;-76
2022/01/31 13:14:44;;;;;;;24.97;6.07;;;6.40;65.10;;;4.74;49.16;99092.50;10400921;27;97625;-76
2022/01/31 13:19:57;;;;;;;29.07;6.77;;;6.40;64.90;;;4.77;48.89;99093.00;10395073;27;97273;-76
2022/01/31 13:25:05;;;;;;;27.70;7.97;;;6.50;64.50;;;4.79;49.36;99090.19;10391997;27;98113;-76
2022/01/31 13:30:30;;;;;;;12.87;3.60;;;6.50;64.80;;;4.95;49.32;99081.56;10413875;27;98174;-75
2022/01/31 13:35:37;;;;;;;24.47;6.40;;;6.60;64.90;;;5.06;48.95;99074.19;10414442;27;96578;-77
2022/01/31 13:40:46;;;;;;;10.20;2.83;;;6.70;65.00;;;5.18;48.67;99068.63;10412816;27;97133;-76
2022/01/31 13:51:13;;;;;;;15.60;3.50;;;7.00;64.30;;;5.34;48.27;99051.06;10386545;27;97021;-75
2022/01/31 13:56:16;;;;;;;11.80;3.27;;;7.00;64.10;;;5.41;47.95;99038.06;10384349;27;96798;-77
2022/01/31 14:01:22;;;;;;;12.70;3.73;;;7.10;63.90;;;5.32;47.71;99031.13;10407856;27;96530;-77
2022/01/31 14:06:31;;;;;;;19.33;7.10;;;7.10;63.50;;;5.19;48.20;99028.97;10394499;27;96577;-77
2022/01/31 14:11:50;;;;;;;17.50;6.27;;;7.00;63.30;;;5.08;48.19;99047.69;10402083;27;98809;-77
2022/01/31 14:16:54;;;;;;;12.27;4.57;;;6.90;63.40;;;4.95;48.15;99045.53;10406207;27;97798;-77
2022/01/31 14:21:57;;;;;;;26.73;6.70;;;6.70;63.30;;;4.83;48.02;99044.97;10379699;27;96662;-77
2022/01/31 14:27:04;;;;;;;15.90;5.27;;;6.60;63.20;;;4.72;48.09;99036.56;10413192;27;98045;-77
2022/01/31 14:32:09;;;;;;;193.80;36.50;;;6.50;63.10;;;4.61;48.28;99023.69;10418642;27;96574;-77
2022/01/31 14:37:20;;;;;;;29.97;7.63;;;6.40;63.10;;;4.50;48.49;99033.53;10391387;27;98445;-77
2022/01/31 14:47:52;;;;;;;22.87;8.70;;;6.20;63.50;;;4.27;49.05;99027.97;10414057;27;98317;-77
2022/01/31 14:52:56;;;;;;;14.40;4.50;;;6.10;63.50;;;4.17;50.79;99016.72;10390871;27;97962;-77
2022/01/31 14:57:59;;;;;;;7.37;2.50;;;6.00;64.50;;;4.00;52.41;99017.59;10390677;27;98409;-77
2022/01/31 15:03:06;;;;;;;15.40;3.80;;;5.80;67.40;;;3.86;54.13;99011.13;10375461;27;96483;-77
2022/01/31 15:08:09;;;;;;;15.87;5.07;;;5.60;67.60;;;3.75;54.69;99012.19;10374258;28;98412;-76
2022/01/31 15:13:13;;;;;;;9.87;3.63;;;5.60;68.30;;;3.65;55.93;99015.88;10398388;27;98535;-75
2022/01/31 15:18:15;;;;;;;22.83;6.93;;;5.40;70.00;;;3.53;58.59;99024.97;10393341;27;96872;-76
2022/01/31 15:23:21;;;;;;;43.73;18.07;;;5.30;72.90;;;3.39;60.31;99026.34;10393829;27;97447;-77
2022/01/31 15:28:24;;;;;;;28.03;10.03;;;5.10;75.10;;;3.24;61.99;99018.19;10395892;27;96394;-76
2022/01/31 15:33:28;;;;;;;37.63;10.00;;;5.00;76.80;;;3.12;62.29;99003.59;10368878;27;96866;-76
2022/01/31 15:38:31;;;;;;;120.30;39.93;;;4.90;77.70;;;3.03;62.45;99000.06;10413906;28;97241;-76
2022/01/31 15:43:35;;;;;;;24.67;9.17;;;4.90;77.70;;;2.95;63.15;99021.00;10379849;27;96771;-75
2022/01/31 15:48:54;;;;;;;16.47;5.07;;;4.80;79.20;;;2.86;64.39;99027.94;10423687;27;96663;-76
2022/01/31 15:53:57;;;;;;;19.90;8.23;;;4.70;81.50;;;2.82;65.42;99034.47;10413800;27;96948;-76
2022/01/31 15:59:01;;;;;;;33.03;10.37;;;4.60;83.40;;;2.77;64.50;99035.88;10392692;27;98430;-75
2022/01/31 16:04:04;;;;;;;25.60;6.83;;;4.50;82.90;;;2.66;64.46;99034.28;10384840;27;96919;-75
2022/01/31 16:09:07;;;;;;;13.50;4.00;;;4.50;83.00;;;2.56;64.63;99033.50;10369398;28;98058;-75
2022/01/31 16:14:13;;;;;;;6.67;2.40;;;4.40;82.90;;;2.50;64.92;99034.91;10407741;27;98050;-75
2022/01/31 16:19:16;;;;;;;10.57;2.93;;;4.40;83.40;;;2.49;65.20;99037.66;10385057;27;96785;-75
2022/01/31 16:24:19;;;;;;;15.47;6.47;;;4.30;83.80;;;2.49;65.04;99035.03;10397399;27;96715;-76
2022/01/31 16:29:22;;;;;;;18.20;6.50;;;4.30;84.80;;;2.49;64.47;99029.81;10401168;27;97647;-78
2022/01/31 16:34:25;;;;;;;18.03;4.77;;;4.40;83.90;;;2.49;63.16;99035.88;10368800;27;99186;-78
2022/01/31 16:39:28;;;;;;;14.03;3.93;;;4.40;82.50;;;2.49;65.78;99059.47;10398468;27;98523;-79
2022/01/31 16:44:32;;;;;;;10.80;3.47;;;4.30;86.30;;;2.37;67.34;99039.66;10395287;27;98463;-82
2022/01/31 16:49:37;;;;;;;10.07;4.63;;;4.20;85.80;;;2.31;65.04;99048.91;10370523;27;96863;-80
2022/01/31 16:54:40;;;;;;;10.93;3.47;;;4.10;86.10;;;2.29;68.24;99066.59;10397073;27;98608;-80
2022/01/31 16:59:43;;;;;;;11.17;3.87;;;4.10;88.60;;;2.05;72.57;99072.31;10409596;27;96544;-80
2022/01/31 17:04:46;;;;;;;8.47;3.53;;;3.90;92.20;;;1.78;73.88;99065.16;10394635;27;98435;-80
2022/01/31 17:09:48;;;;;;;12.73;5.83;;;3.70;95.40;;;1.61;75.11;99066.69;10359177;28;96611;-80
2022/01/31 17:14:57;;;;;;;20.47;8.77;;;3.50;99.10;;;1.49;75.62;99054.69;10390574;27;96587;-79
2022/01/31 17:20:00;;;;;;;16.83;5.53;;;3.40;99.90;;;1.43;77.02;99044.78;10366855;28;97370;-80
2022/01/31 17:25:05;;;;;;;18.70;7.63;;;3.30;99.90;;;1.36;77.82;99042.84;10378786;27;96964;-79
2022/01/31 17:30:10;;;;;;;11.43;5.07;;;3.30;99.90;;;1.29;78.56;99035.56;10399996;27;98177;-79
2022/01/31 17:35:15;;;;;;;12.13;6.17;;;3.20;99.90;;;1.26;79.42;99042.84;10430028;27;98326;-79
2022/01/31 17:40:19;;;;;;;18.27;6.90;;;3.20;99.90;;;1.24;80.15;99040.38;10395827;27;98118;-80
2022/01/31 17:45:25;;;;;;;19.57;5.70;;;3.10;99.90;;;1.25;80.44;99030.72;10381256;27;96941;-80
2022/01/31 17:50:28;;;;;;;15.73;5.60;;;3.20;99.90;;;1.25;80.81;99033.34;10397868;27;98898;-80
2022/01/31 17:55:33;;;;;;;16.07;5.63;;;3.20;99.90;;;1.21;80.90;99024.13;10370985;27;98399;-76
2022/01/31 18:00:37;;;;;;;21.50;7.13;;;3.20;99.90;;;1.15;81.10;99017.66;10383064;27;98301;-77
2022/01/31 18:05:39;;;;;;;21.23;7.77;;;3.10;99.90;;;1.09;80.99;99017.38;10384519;27;97977;-76
2022/01/31 18:10:43;;;;;;;19.13;7.57;;;3.10;99.90;;;1.03;81.06;99021.34;10379544;27;98004;-76
2022/01/31 18:15:45;;;;;;;21.50;7.53;;;3.10;99.90;;;1.01;80.46;99008.38;10388945;27;97887;-76
2022/01/31 18:20:49;;;;;;;23.73;8.17;;;3.10;99.90;;;1.03;80.65;99010.91;10400967;27;98672;-76
2022/01/31 18:25:52;;;;;;;22.60;8.33;;;3.10;99.90;;;1.07;80.65;99007.03;10406384;27;96709;-76
2022/01/31 18:31:01;;;;;;;36.40;12.77;;;3.10;99.90;;;1.10;80.75;99019.84;10385478;27;97500;-76
2022/01/31 18:36:10;;;;;;;30.85;12.85;;;3.10;99.90;;;1.10;81.30;99017.22;10399151;27;96987;-79
2022/01/31 18:41:24;;;;;;;18.67;8.70;;;3.10;99.90;;;1.07;82.59;99018.31;10418968;27;96940;-93
2022/01/31 18:46:33;;;;;;;23.53;8.27;;;3.10;99.90;;;1.08;82.84;99019.16;10418776;27;96568;-77
2022/01/31 18:51:39;;;;;;;31.37;11.00;;;3.00;99.90;;;1.08;82.55;99024.41;10420930;27;98537;-78
2022/01/31 18:56:41;;;;;;;28.90;10.47;;;3.00;99.90;;;1.10;82.53;99027.69;10422387;27;99883;-77
2022/01/31 19:01:45;;;;;;;23.47;11.40;;;3.10;99.90;;;1.12;82.43;99025.75;10422731;28;96486;-77
2022/01/31 19:06:48;;;;;;;31.57;13.20;;;3.10;99.90;;;1.17;82.91;99023.56;10404155;28;96519;-77
2022/01/31 19:11:55;;;;;;;24.33;11.40;;;3.10;99.90;;;1.19;82.95;99021.63;10421681;28;96556;-78
2022/01/31 19:16:59;;;;;;;43.30;16.73;;;3.10;99.90;;;1.22;82.79;99023.97;10396689;28;96455;-78
2022/01/31 19:22:05;;;;;;;26.90;13.03;;;3.20;99.90;;;1.24;83.10;99019.44;10447003;27;98242;-79
2022/01/31 19:27:08;;;;;;;34.07;14.00;;;3.20;99.90;;;1.27;82.94;99020.97;10390208;28;97135;-79
2022/01/31 19:32:11;;;;;;;22.87;11.43;;;3.20;99.90;;;1.23;83.18;99012.53;10377542;28;96511;-78
2022/01/31 19:37:14;;;;;;;22.87;9.10;;;3.20;99.90;;;1.24;83.29;99018.59;10388777;28;96916;-78
2022/01/31 19:47:38;;;;;;;25.25;10.73;;;3.20;99.90;;;1.22;83.24;99017.94;10402210;27;96473;-78
2022/01/31 19:52:41;;;;;;;32.27;15.00;;;3.20;99.90;;;1.23;83.25;99027.44;10400140;28;96664;-78
2022/01/31 19:57:47;;;;;;;15.30;6.50;;;3.20;99.90;;;1.25;83.08;99042.00;10396030;27;96610;-79
2022/01/31 20:02:56;;;;;;;;;;;3.20;99.90;;;1.30;82.76;99049.47;10384027;28;96672;-79
2022/01/31 20:07:59;;;;;;;9.37;4.33;;;3.20;99.90;;;1.33;82.70;99047.41;10411515;27;96608;-80
2022/01/31 20:13:06;;;;;;;8.13;3.80;;;3.20;99.90;;;1.41;82.49;99043.28;10427277;27;96416;-79
2022/01/31 20:18:12;;;;;;;7.33;3.73;;;3.30;99.90;;;1.47;82.73;99042.72;10378741;27;96575;-80
2022/01/31 20:23:20;;;;;;;10.13;4.10;;;3.30;99.90;;;1.52;83.73;99037.91;10437020;27;98520;-79
2022/01/31 20:28:35;;;;;;;19.27;8.37;;;3.30;99.90;;;1.52;83.24;99036.09;10431354;27;96579;-80
2022/01/31 20:33:39;;;;;;;27.50;12.77;;;3.40;99.90;;;1.45;83.69;99037.63;10433740;27;96734;-79
2022/01/31 20:38:54;;;;;;;34.60;16.03;;;3.40;99.90;;;1.33;83.79;99029.09;10422780;27;96509;-80
2022/01/31 20:43:59;;;;;;;39.93;18.33;;;3.30;99.90;;;1.18;83.98;99034.84;10400013;27;96844;-80
2022/01/31 20:49:02;;;;;;;38.90;17.70;;;3.20;99.90;;;1.04;84.41;99030.84;10404463;27;96613;-80
2022/01/31 20:54:05;;;;;;;30.23;13.57;;;3.10;99.90;;;0.96;84.75;99031.53;10429943;27;98165;-80
2022/01/31 20:59:14;;;;;;;21.80;8.83;;;3.00;99.90;;;0.88;84.90;99022.69;10408482;27;96512;-80
2022/01/31 21:04:18;;;;;;;14.60;6.57;;;2.90;99.90;;;0.82;85.04;99044.97;10401235;27;96788;-80
2022/01/31 21:09:21;;;;;;;14.33;5.93;;;2.80;99.90;;;0.76;85.50;99053.38;10396988;27;96996;-80
2022/01/31 21:14:23;;;;;;;12.80;5.63;;;2.80;99.90;;;0.69;85.86;99058.31;10377983;27;96551;-80
2022/01/31 21:19:27;;;;;;;13.90;5.27;;;2.70;99.90;;;0.62;85.85;99045.91;10413782;27;98222;-79
2022/01/31 21:24:31;;;;;;;22.97;9.87;;;2.70;99.90;;;0.55;86.61;99050.00;10398192;27;98282;-77
2022/01/31 21:29:34;;;;;;;97.77;31.07;;;2.60;99.90;;;0.52;86.30;99057.13;10394763;27;96523;-78
2022/01/31 21:34:36;;;;;;;39.90;17.90;;;2.60;99.90;;;0.54;86.86;99046.56;10357052;27;96681;-77
2022/01/31 21:39:39;;;;;;;55.33;18.80;;;2.50;99.90;;;0.55;87.07;99050.84;10374247;28;96420;-77
2022/01/31 21:44:43;;;;;;;41.17;18.70;;;2.60;99.90;;;0.57;86.84;99054.13;10387197;27;98600;-77
2022/01/31 21:49:49;;;;;;;39.87;17.33;;;2.60;99.90;;;0.58;86.78;99054.97;10381908;27;96525;-77
2022/01/31 21:54:52;;;;;;;43.03;23.47;;;2.60;99.90;;;0.60;87.25;99060.88;10391018;28;96862;-77
2022/01/31 21:59:55;;;;;;;45.33;22.70;;;2.60;99.90;;;0.63;87.21;99063.25;10405814;27;96957;-77
2022/01/31 22:04:58;;;;;;;36.03;18.37;;;2.60;99.90;;;0.68;87.27;99063.66;10374988;27;98177;-78
2022/01/31 22:10:07;;;;;;;17.90;9.10;;;2.60;99.90;;;0.77;87.93;99071.53;10421236;27;96453;-77
2022/01/31 22:15:10;;;;;;;15.60;8.10;;;2.70;99.90;;;0.92;87.80;99065.94;10417778;27;97054;-77
2022/01/31 22:20:14;;;;;;;9.60;5.63;;;2.80;99.90;;;1.06;88.58;99070.78;10410657;27;96622;-77
2022/01/31 22:25:19;;;;;;;9.30;5.10;;;2.90;99.90;;;1.19;88.66;99073.97;10432978;27;96783;-77